sensor_id;sensor_type;location;lat;lon;timestamp;pressure;altitude;pressure_sealevel;temperature;humidity
50682;BME280;36779;52.168;20.878;2023-02-12T00:00:25;101742.38;;;0.97;77.18
50682;BME280;36779;52.168;20.878;2023-02-12T00:03:15;101743.77;;;0.93;77.09
50682;BME280;36779;52.168;20.878;2023-02-12T00:05:44;101746.77;;;0.88;77.18
50682;BME280;36779;52.168;20.878;2023-02-12T00:08:13;101749.75;;;0.84;77.11
50682;BME280;36779;52.168;20.878;2023-02-12T00:10:44;101752.69;;;0.81;77.12
50682;BME280;36779;52.168;20.878;2023-02-12T00:13:13;101759.30;;;0.78;77.10
50682;BME280;36779;52.168;20.878;2023-02-12T00:15:43;101764.28;;;0.76;77.11
50682;BME280;36779;52.168;20.878;2023-02-12T00:18:12;101766.66;;;0.73;77.13
50682;BME280;36779;52.168;20.878;2023-02-12T00:20:42;101771.17;;;0.70;77.20
50682;BME280;36779;52.168;20.878;2023-02-12T00:23:12;101775.16;;;0.67;77.09
50682;BME280;36779;52.168;20.878;2023-02-12T00:25:41;101787.03;;;0.63;77.02
50682;BME280;36779;52.168;20.878;2023-02-12T00:28:10;101799.34;;;0.62;77.08
50682;BME280;36779;52.168;20.878;2023-02-12T00:30:42;101799.59;;;0.60;77.03
50682;BME280;36779;52.168;20.878;2023-02-12T00:33:13;101804.56;;;0.58;77.06
50682;BME280;36779;52.168;20.878;2023-02-12T00:35:47;101806.26;;;0.55;77.06
50682;BME280;36779;52.168;20.878;2023-02-12T00:38:23;101809.03;;;0.52;77.04
50682;BME280;36779;52.168;20.878;2023-02-12T00:40:54;101810.68;;;0.50;77.02
50682;BME280;36779;52.168;20.878;2023-02-12T00:43:24;101811.46;;;0.48;76.86
50682;BME280;36779;52.168;20.878;2023-02-12T00:45:53;101811.88;;;0.46;77.00
50682;BME280;36779;52.168;20.878;2023-02-12T00:48:23;101815.63;;;0.44;76.91
50682;BME280;36779;52.168;20.878;2023-02-12T00:50:52;101821.52;;;0.42;77.04
50682;BME280;36779;52.168;20.878;2023-02-12T00:53:21;101828.58;;;0.40;76.86
50682;BME280;36779;52.168;20.878;2023-02-12T00:55:51;101834.78;;;0.38;77.05
50682;BME280;36779;52.168;20.878;2023-02-12T00:58:22;101841.64;;;0.37;76.94
50682;BME280;36779;52.168;20.878;2023-02-12T01:00:53;101841.33;;;0.36;76.95
50682;BME280;36779;52.168;20.878;2023-02-12T01:03:24;101846.61;;;0.35;76.87
50682;BME280;36779;52.168;20.878;2023-02-12T01:05:54;101844.02;;;0.35;76.87
50682;BME280;36779;52.168;20.878;2023-02-12T01:08:25;101843.37;;;0.33;77.00
50682;BME280;36779;52.168;20.878;2023-02-12T01:10:59;101851.84;;;0.31;76.94
50682;BME280;36779;52.168;20.878;2023-02-12T01:13:30;101859.72;;;0.31;76.89
50682;BME280;36779;52.168;20.878;2023-02-12T01:16:06;101866.02;;;0.31;76.85
50682;BME280;36779;52.168;20.878;2023-02-12T01:18:36;101873.52;;;0.31;76.73
50682;BME280;36779;52.168;20.878;2023-02-12T01:21:13;101874.81;;;0.30;76.84
50682;BME280;36779;52.168;20.878;2023-02-12T01:23:43;101869.46;;;0.28;76.79
50682;BME280;36779;52.168;20.878;2023-02-12T01:26:14;101878.59;;;0.26;76.85
50682;BME280;36779;52.168;20.878;2023-02-12T01:28:48;101881.55;;;0.27;76.88
50682;BME280;36779;52.168;20.878;2023-02-12T01:31:20;101893.28;;;0.26;76.77
50682;BME280;36779;52.168;20.878;2023-02-12T01:33:53;101892.79;;;0.26;76.80
50682;BME280;36779;52.168;20.878;2023-02-12T01:36:23;101886.86;;;0.26;76.78
50682;BME280;36779;52.168;20.878;2023-02-12T01:38:52;101894.96;;;0.24;76.71
50682;BME280;36779;52.168;20.878;2023-02-12T01:41:24;101892.97;;;0.21;76.65
50682;BME280;36779;52.168;20.878;2023-02-12T01:44:09;101896.73;;;0.18;76.80
50682;BME280;36779;52.168;20.878;2023-02-12T01:46:43;101898.23;;;0.16;76.71
50682;BME280;36779;52.168;20.878;2023-02-12T01:49:18;101896.79;;;0.17;76.65
50682;BME280;36779;52.168;20.878;2023-02-12T01:51:51;101905.38;;;0.17;76.65
50682;BME280;36779;52.168;20.878;2023-02-12T01:54:22;101904.36;;;0.16;76.67
50682;BME280;36779;52.168;20.878;2023-02-12T01:56:54;101899.19;;;0.14;76.56
50682;BME280;36779;52.168;20.878;2023-02-12T01:59:23;101906.90;;;0.13;76.68
50682;BME280;36779;52.168;20.878;2023-02-12T02:01:55;101912.34;;;0.13;76.67
50682;BME280;36779;52.168;20.878;2023-02-12T02:04:27;101924.80;;;0.12;76.63
50682;BME280;36779;52.168;20.878;2023-02-12T02:06:58;101928.14;;;0.11;76.71
50682;BME280;36779;52.168;20.878;2023-02-12T02:09:30;101932.52;;;0.11;76.66
50682;BME280;36779;52.168;20.878;2023-02-12T02:11:59;101937.61;;;0.11;76.61
50682;BME280;36779;52.168;20.878;2023-02-12T02:14:47;101939.73;;;0.10;76.58
50682;BME280;36779;52.168;20.878;2023-02-12T02:17:40;101942.38;;;0.09;76.63
50682;BME280;36779;52.168;20.878;2023-02-12T02:20:32;101944.63;;;0.10;76.67
50682;BME280;36779;52.168;20.878;2023-02-12T02:23:29;101955.92;;;0.12;76.58
50682;BME280;36779;52.168;20.878;2023-02-12T02:26:18;101955.88;;;0.13;76.68
50682;BME280;36779;52.168;20.878;2023-02-12T02:29:08;101954.27;;;0.13;76.51
50682;BME280;36779;52.168;20.878;2023-02-12T02:31:44;101964.58;;;0.14;76.54
50682;BME280;36779;52.168;20.878;2023-02-12T02:34:22;101981.17;;;0.15;76.57
50682;BME280;36779;52.168;20.878;2023-02-12T02:36:57;101983.88;;;0.12;76.57
50682;BME280;36779;52.168;20.878;2023-02-12T02:39:34;101988.34;;;0.09;76.52
50682;BME280;36779;52.168;20.878;2023-02-12T02:42:10;101987.33;;;0.09;76.52
50682;BME280;36779;52.168;20.878;2023-02-12T02:44:47;101985.02;;;0.09;76.56
50682;BME280;36779;52.168;20.878;2023-02-12T02:47:23;102001.45;;;0.10;76.50
50682;BME280;36779;52.168;20.878;2023-02-12T02:50:00;102003.73;;;0.10;76.52
50682;BME280;36779;52.168;20.878;2023-02-12T02:52:34;102001.62;;;0.10;76.48
50682;BME280;36779;52.168;20.878;2023-02-12T02:55:06;102006.52;;;0.09;76.44
50682;BME280;36779;52.168;20.878;2023-02-12T02:57:40;102020.92;;;0.08;76.53
50682;BME280;36779;52.168;20.878;2023-02-12T03:00:16;102029.36;;;0.06;76.56
50682;BME280;36779;52.168;20.878;2023-02-12T03:02:52;102033.90;;;0.06;76.56
50682;BME280;36779;52.168;20.878;2023-02-12T03:05:28;102041.57;;;0.08;76.43
50682;BME280;36779;52.168;20.878;2023-02-12T03:08:03;102045.70;;;0.09;76.39
50682;BME280;36779;52.168;20.878;2023-02-12T03:10:37;102053.52;;;0.11;76.39
50682;BME280;36779;52.168;20.878;2023-02-12T03:13:20;102061.98;;;0.13;76.34
50682;BME280;36779;52.168;20.878;2023-02-12T03:15:58;102066.89;;;0.13;76.44
50682;BME280;36779;52.168;20.878;2023-02-12T03:18:30;102074.14;;;0.11;76.30
50682;BME280;36779;52.168;20.878;2023-02-12T03:21:03;102080.19;;;0.08;76.31
50682;BME280;36779;52.168;20.878;2023-02-12T03:23:38;102088.70;;;0.05;76.42
50682;BME280;36779;52.168;20.878;2023-02-12T03:26:11;102086.13;;;0.03;76.36
50682;BME280;36779;52.168;20.878;2023-02-12T03:28:45;102099.39;;;0.04;76.43
50682;BME280;36779;52.168;20.878;2023-02-12T03:31:23;102100.23;;;0.05;76.34
50682;BME280;36779;52.168;20.878;2023-02-12T03:34:02;102103.30;;;0.07;76.34
50682;BME280;36779;52.168;20.878;2023-02-12T03:36:43;102105.77;;;0.06;76.28
50682;BME280;36779;52.168;20.878;2023-02-12T03:39:15;102111.58;;;0.05;76.27
50682;BME280;36779;52.168;20.878;2023-02-12T03:41:57;102108.30;;;0.04;76.32
50682;BME280;36779;52.168;20.878;2023-02-12T03:44:42;102114.30;;;0.02;76.33
50682;BME280;36779;52.168;20.878;2023-02-12T03:47:19;102124.82;;;0.01;76.46
50682;BME280;36779;52.168;20.878;2023-02-12T03:49:57;102127.31;;;-0.00;76.35
50682;BME280;36779;52.168;20.878;2023-02-12T03:52:29;102130.76;;;-0.04;76.31
50682;BME280;36779;52.168;20.878;2023-02-12T03:54:59;102134.09;;;-0.05;76.36
50682;BME280;36779;52.168;20.878;2023-02-12T03:57:32;102142.47;;;-0.04;76.20
50682;BME280;36779;52.168;20.878;2023-02-12T04:00:08;102149.77;;;-0.03;76.28
50682;BME280;36779;52.168;20.878;2023-02-12T04:02:45;102157.23;;;-0.01;76.26
50682;BME280;36779;52.168;20.878;2023-02-12T04:05:18;102158.96;;;-0.00;76.21
50682;BME280;36779;52.168;20.878;2023-02-12T04:07:52;102165.77;;;-0.01;76.22
50682;BME280;36779;52.168;20.878;2023-02-12T04:10:26;102169.30;;;-0.01;76.26
50682;BME280;36779;52.168;20.878;2023-02-12T04:13:08;102161.52;;;-0.04;76.16
50682;BME280;36779;52.168;20.878;2023-02-12T04:16:00;102164.39;;;-0.06;76.21
50682;BME280;36779;52.168;20.878;2023-02-12T04:18:41;102168.44;;;-0.07;76.20
50682;BME280;36779;52.168;20.878;2023-02-12T04:21:18;102176.50;;;-0.08;76.10
50682;BME280;36779;52.168;20.878;2023-02-12T04:23:56;102177.39;;;-0.08;76.18
50682;BME280;36779;52.168;20.878;2023-02-12T04:26:36;102177.79;;;-0.09;76.24
50682;BME280;36779;52.168;20.878;2023-02-12T04:29:18;102173.98;;;-0.11;76.16
50682;BME280;36779;52.168;20.878;2023-02-12T04:31:56;102179.13;;;-0.13;76.20
50682;BME280;36779;52.168;20.878;2023-02-12T04:34:34;102184.40;;;-0.14;76.10
50682;BME280;36779;52.168;20.878;2023-02-12T04:37:15;102185.28;;;-0.14;76.04
50682;BME280;36779;52.168;20.878;2023-02-12T04:39:46;102187.02;;;-0.14;76.02
50682;BME280;36779;52.168;20.878;2023-02-12T04:42:19;102184.95;;;-0.15;75.99
50682;BME280;36779;52.168;20.878;2023-02-12T04:44:51;102187.83;;;-0.17;75.93
50682;BME280;36779;52.168;20.878;2023-02-12T04:47:20;102186.54;;;-0.21;75.97
50682;BME280;36779;52.168;20.878;2023-02-12T04:49:49;102187.19;;;-0.25;76.01
50682;BME280;36779;52.168;20.878;2023-02-12T04:52:18;102193.71;;;-0.27;75.99
50682;BME280;36779;52.168;20.878;2023-02-12T04:54:48;102193.77;;;-0.29;75.89
50682;BME280;36779;52.168;20.878;2023-02-12T04:57:17;102201.41;;;-0.32;75.94
50682;BME280;36779;52.168;20.878;2023-02-12T04:59:46;102204.81;;;-0.36;75.97
50682;BME280;36779;52.168;20.878;2023-02-12T05:02:16;102205.45;;;-0.38;75.94
50682;BME280;36779;52.168;20.878;2023-02-12T05:04:49;102211.41;;;-0.40;75.75
50682;BME280;36779;52.168;20.878;2023-02-12T05:07:18;102217.17;;;-0.39;75.89
50682;BME280;36779;52.168;20.878;2023-02-12T05:09:48;102227.80;;;-0.38;75.81
50682;BME280;36779;52.168;20.878;2023-02-12T05:12:17;102232.69;;;-0.38;75.73
50682;BME280;36779;52.168;20.878;2023-02-12T05:14:52;102233.61;;;-0.40;75.83
50682;BME280;36779;52.168;20.878;2023-02-12T05:17:22;102238.61;;;-0.43;75.77
50682;BME280;36779;52.168;20.878;2023-02-12T05:19:54;102245.15;;;-0.46;75.87
50682;BME280;36779;52.168;20.878;2023-02-12T05:22:24;102250.08;;;-0.48;75.96
50682;BME280;36779;52.168;20.878;2023-02-12T05:24:54;102252.94;;;-0.50;75.76
50682;BME280;36779;52.168;20.878;2023-02-12T05:27:23;102253.51;;;-0.51;75.77
50682;BME280;36779;52.168;20.878;2023-02-12T05:29:56;102254.61;;;-0.53;75.84
50682;BME280;36779;52.168;20.878;2023-02-12T05:32:29;102265.11;;;-0.53;75.77
50682;BME280;36779;52.168;20.878;2023-02-12T05:34:57;102267.84;;;-0.52;75.68
50682;BME280;36779;52.168;20.878;2023-02-12T05:37:27;102270.75;;;-0.50;75.78
50682;BME280;36779;52.168;20.878;2023-02-12T05:39:58;102271.05;;;-0.48;75.78
50682;BME280;36779;52.168;20.878;2023-02-12T05:42:30;102282.55;;;-0.46;75.79
50682;BME280;36779;52.168;20.878;2023-02-12T05:44:59;102288.70;;;-0.48;75.75
50682;BME280;36779;52.168;20.878;2023-02-12T05:47:28;102286.80;;;-0.49;75.75
50682;BME280;36779;52.168;20.878;2023-02-12T05:49:57;102294.13;;;-0.49;75.74
50682;BME280;36779;52.168;20.878;2023-02-12T05:52:26;102301.52;;;-0.50;75.79
50682;BME280;36779;52.168;20.878;2023-02-12T05:54:55;102308.01;;;-0.52;75.83
50682;BME280;36779;52.168;20.878;2023-02-12T05:57:28;102308.69;;;-0.51;75.82
50682;BME280;36779;52.168;20.878;2023-02-12T05:59:59;102307.61;;;-0.50;75.83
50682;BME280;36779;52.168;20.878;2023-02-12T06:02:28;102317.91;;;-0.49;75.78
50682;BME280;36779;52.168;20.878;2023-02-12T06:04:58;102322.89;;;-0.46;75.73
50682;BME280;36779;52.168;20.878;2023-02-12T06:07:30;102327.19;;;-0.44;75.70
50682;BME280;36779;52.168;20.878;2023-02-12T06:10:02;102331.36;;;-0.44;75.78
50682;BME280;36779;52.168;20.878;2023-02-12T06:12:34;102338.23;;;-0.45;75.66
50682;BME280;36779;52.168;20.878;2023-02-12T06:15:04;102347.88;;;-0.47;75.74
50682;BME280;36779;52.168;20.878;2023-02-12T06:17:34;102352.25;;;-0.47;75.76
50682;BME280;36779;52.168;20.878;2023-02-12T06:20:04;102355.39;;;-0.46;75.79
50682;BME280;36779;52.168;20.878;2023-02-12T06:22:33;102356.77;;;-0.45;75.81
50682;BME280;36779;52.168;20.878;2023-02-12T06:25:02;102354.69;;;-0.46;75.77
50682;BME280;36779;52.168;20.878;2023-02-12T06:27:31;102359.04;;;-0.46;75.77
50682;BME280;36779;52.168;20.878;2023-02-12T06:30:00;102363.36;;;-0.45;75.94
50682;BME280;36779;52.168;20.878;2023-02-12T06:32:29;102367.08;;;-0.46;75.77
50682;BME280;36779;52.168;20.878;2023-02-12T06:34:57;102365.17;;;-0.47;75.78
50682;BME280;36779;52.168;20.878;2023-02-12T06:37:28;102362.90;;;-0.47;75.80
50682;BME280;36779;52.168;20.878;2023-02-12T06:39:57;102366.18;;;-0.45;75.63
50682;BME280;36779;52.168;20.878;2023-02-12T06:42:27;102372.39;;;-0.42;75.64
50682;BME280;36779;52.168;20.878;2023-02-12T06:44:56;102371.60;;;-0.39;75.74
50682;BME280;36779;52.168;20.878;2023-02-12T06:47:27;102372.70;;;-0.35;75.67
50682;BME280;36779;52.168;20.878;2023-02-12T06:49:56;102375.84;;;-0.29;75.60
50682;BME280;36779;52.168;20.878;2023-02-12T06:52:27;102374.13;;;-0.24;75.66
50682;BME280;36779;52.168;20.878;2023-02-12T06:54:57;102375.09;;;-0.21;75.79
50682;BME280;36779;52.168;20.878;2023-02-12T06:57:31;102376.80;;;-0.19;75.70
50682;BME280;36779;52.168;20.878;2023-02-12T07:00:00;102377.02;;;-0.20;75.63
50682;BME280;36779;52.168;20.878;2023-02-12T07:02:31;102388.02;;;-0.21;75.66
50682;BME280;36779;52.168;20.878;2023-02-12T07:05:00;102390.02;;;-0.18;75.75
50682;BME280;36779;52.168;20.878;2023-02-12T07:07:29;102386.45;;;-0.14;75.85
50682;BME280;36779;52.168;20.878;2023-02-12T07:09:58;102388.83;;;-0.12;75.68
50682;BME280;36779;52.168;20.878;2023-02-12T07:12:33;102387.61;;;-0.07;75.83
50682;BME280;36779;52.168;20.878;2023-02-12T07:15:02;102392.61;;;0.01;75.80
50682;BME280;36779;52.168;20.878;2023-02-12T07:17:32;102398.41;;;0.13;75.91
50682;BME280;36779;52.168;20.878;2023-02-12T07:20:01;102408.35;;;0.19;75.69
50682;BME280;36779;52.168;20.878;2023-02-12T07:22:30;102407.69;;;0.24;75.65
50682;BME280;36779;52.168;20.878;2023-02-12T07:24:58;102408.98;;;0.28;75.62
50682;BME280;36779;52.168;20.878;2023-02-12T07:27:29;102412.20;;;0.31;75.53
50682;BME280;36779;52.168;20.878;2023-02-12T07:29:58;102413.08;;;0.36;75.73
50682;BME280;36779;52.168;20.878;2023-02-12T07:32:27;102416.60;;;0.41;75.76
50682;BME280;36779;52.168;20.878;2023-02-12T07:34:56;102414.80;;;0.49;75.77
50682;BME280;36779;52.168;20.878;2023-02-12T07:37:33;102414.61;;;0.60;75.96
50682;BME280;36779;52.168;20.878;2023-02-12T07:40:07;102405.86;;;0.71;76.07
50682;BME280;36779;52.168;20.878;2023-02-12T07:42:37;102401.95;;;0.79;75.92
50682;BME280;36779;52.168;20.878;2023-02-12T07:45:12;102404.54;;;0.85;75.98
50682;BME280;36779;52.168;20.878;2023-02-12T07:47:43;102412.05;;;0.91;75.98
50682;BME280;36779;52.168;20.878;2023-02-12T07:50:15;102411.20;;;0.95;75.91
50682;BME280;36779;52.168;20.878;2023-02-12T07:52:47;102407.64;;;0.97;75.87
50682;BME280;36779;52.168;20.878;2023-02-12T07:55:21;102411.79;;;0.93;75.73
50682;BME280;36779;52.168;20.878;2023-02-12T07:57:50;102417.08;;;0.87;75.37
50682;BME280;36779;52.168;20.878;2023-02-12T08:00:22;102422.20;;;0.75;75.15
50682;BME280;36779;52.168;20.878;2023-02-12T08:02:52;102427.98;;;0.63;75.15
50682;BME280;36779;52.168;20.878;2023-02-12T08:05:23;102432.81;;;0.60;75.23
50682;BME280;36779;52.168;20.878;2023-02-12T08:07:56;102436.70;;;0.64;75.47
50682;BME280;36779;52.168;20.878;2023-02-12T08:10:26;102439.91;;;0.73;75.60
50682;BME280;36779;52.168;20.878;2023-02-12T08:12:59;102445.04;;;0.83;75.72
50682;BME280;36779;52.168;20.878;2023-02-12T08:15:32;102448.30;;;0.85;75.47
50682;BME280;36779;52.168;20.878;2023-02-12T08:18:01;102455.77;;;0.92;75.61
50682;BME280;36779;52.168;20.878;2023-02-12T08:20:33;102453.85;;;1.03;75.75
50682;BME280;36779;52.168;20.878;2023-02-12T08:23:04;102453.50;;;1.08;75.58
50682;BME280;36779;52.168;20.878;2023-02-12T08:25:33;102454.48;;;1.16;75.75
50682;BME280;36779;52.168;20.878;2023-02-12T08:28:02;102461.30;;;1.21;75.60
50682;BME280;36779;52.168;20.878;2023-02-12T08:30:36;102463.27;;;1.25;75.56
50682;BME280;36779;52.168;20.878;2023-02-12T08:33:06;102462.17;;;1.32;75.76
50682;BME280;36779;52.168;20.878;2023-02-12T08:35:38;102462.61;;;1.39;75.77
50682;BME280;36779;52.168;20.878;2023-02-12T08:38:07;102460.83;;;1.40;75.42
50682;BME280;36779;52.168;20.878;2023-02-12T08:40:36;102459.59;;;1.35;75.38
50682;BME280;36779;52.168;20.878;2023-02-12T08:43:06;102465.65;;;1.43;75.57
50682;BME280;36779;52.168;20.878;2023-02-12T08:45:36;102459.78;;;1.65;75.74
50682;BME280;36779;52.168;20.878;2023-02-12T08:48:08;102455.23;;;1.90;75.74
50682;BME280;36779;52.168;20.878;2023-02-12T08:50:37;102455.11;;;1.93;75.46
50682;BME280;36779;52.168;20.878;2023-02-12T08:53:06;102455.98;;;1.98;75.38
50682;BME280;36779;52.168;20.878;2023-02-12T08:55:34;102451.27;;;2.02;75.52
50682;BME280;36779;52.168;20.878;2023-02-12T08:58:04;102446.97;;;2.14;75.70
50682;BME280;36779;52.168;20.878;2023-02-12T09:00:36;102437.69;;;2.36;76.13
50682;BME280;36779;52.168;20.878;2023-02-12T09:03:13;102446.70;;;2.75;76.57
50682;BME280;36779;52.168;20.878;2023-02-12T09:05:42;102450.01;;;2.94;76.37
50682;BME280;36779;52.168;20.878;2023-02-12T09:08:11;102459.84;;;3.24;76.71
50682;BME280;36779;52.168;20.878;2023-02-12T09:10:41;102460.98;;;3.62;76.93
50682;BME280;36779;52.168;20.878;2023-02-12T09:13:12;102461.73;;;3.85;76.38
50682;BME280;36779;52.168;20.878;2023-02-12T09:15:44;102464.04;;;3.73;75.58
50682;BME280;36779;52.168;20.878;2023-02-12T09:18:14;102467.65;;;3.50;74.98
50682;BME280;36779;52.168;20.878;2023-02-12T09:20:44;102465.98;;;3.37;75.10
50682;BME280;36779;52.168;20.878;2023-02-12T09:23:14;102472.09;;;3.37;75.34
50682;BME280;36779;52.168;20.878;2023-02-12T09:25:44;102471.17;;;3.38;75.31
50682;BME280;36779;52.168;20.878;2023-02-12T09:28:14;102472.93;;;3.34;75.03
50682;BME280;36779;52.168;20.878;2023-02-12T09:30:43;102473.73;;;3.23;74.97
50682;BME280;36779;52.168;20.878;2023-02-12T09:33:12;102471.05;;;3.11;74.88
50682;BME280;36779;52.168;20.878;2023-02-12T09:35:41;102478.26;;;3.07;75.12
50682;BME280;36779;52.168;20.878;2023-02-12T09:38:10;102478.36;;;3.04;75.01
50682;BME280;36779;52.168;20.878;2023-02-12T09:40:46;102481.09;;;2.85;74.47
50682;BME280;36779;52.168;20.878;2023-02-12T09:43:28;102488.65;;;2.76;74.55
50682;BME280;36779;52.168;20.878;2023-02-12T09:46:07;102491.87;;;2.83;74.83
50682;BME280;36779;52.168;20.878;2023-02-12T09:48:51;102496.20;;;3.11;75.21
50682;BME280;36779;52.168;20.878;2023-02-12T09:51:22;102493.45;;;3.64;75.92
50682;BME280;36779;52.168;20.878;2023-02-12T09:54:00;102497.36;;;4.07;75.57
50682;BME280;36779;52.168;20.878;2023-02-12T09:56:31;102501.42;;;4.49;75.71
50682;BME280;36779;52.168;20.878;2023-02-12T09:59:04;102499.38;;;5.00;75.65
50682;BME280;36779;52.168;20.878;2023-02-12T10:01:37;102499.01;;;5.46;75.40
50682;BME280;36779;52.168;20.878;2023-02-12T10:04:06;102493.67;;;5.88;75.42
50682;BME280;36779;52.168;20.878;2023-02-12T10:06:40;102492.41;;;6.49;75.46
50682;BME280;36779;52.168;20.878;2023-02-12T10:09:28;102491.77;;;7.16;75.36
50682;BME280;36779;52.168;20.878;2023-02-12T10:12:05;102495.01;;;7.75;74.86
50682;BME280;36779;52.168;20.878;2023-02-12T10:15:01;102495.40;;;8.15;74.37
50682;BME280;36779;52.168;20.878;2023-02-12T10:17:41;102487.63;;;8.57;74.18
50682;BME280;36779;52.168;20.878;2023-02-12T10:20:37;102481.55;;;9.02;74.40
50682;BME280;36779;52.168;20.878;2023-02-12T10:23:28;102481.61;;;9.20;72.87
50682;BME280;36779;52.168;20.878;2023-02-12T10:26:05;102486.42;;;9.46;73.28
50682;BME280;36779;52.168;20.878;2023-02-12T10:28:39;102487.77;;;9.83;73.39
50682;BME280;36779;52.168;20.878;2023-02-12T10:31:14;102487.85;;;9.98;72.51
50682;BME280;36779;52.168;20.878;2023-02-12T10:33:47;102492.86;;;10.20;72.68
50682;BME280;36779;52.168;20.878;2023-02-12T10:36:22;102488.13;;;10.27;72.07
50682;BME280;36779;52.168;20.878;2023-02-12T10:39:00;102489.67;;;9.82;70.77
50682;BME280;36779;52.168;20.878;2023-02-12T10:41:31;102483.53;;;9.68;71.44
50682;BME280;36779;52.168;20.878;2023-02-12T10:44:00;102489.08;;;9.70;71.93
50682;BME280;36779;52.168;20.878;2023-02-12T10:46:31;102486.87;;;9.71;72.11
50682;BME280;36779;52.168;20.878;2023-02-12T10:49:02;102481.19;;;9.76;72.60
50682;BME280;36779;52.168;20.878;2023-02-12T10:51:40;102486.64;;;9.53;71.48
50682;BME280;36779;52.168;20.878;2023-02-12T10:54:35;102487.11;;;8.93;70.89
50682;BME280;36779;52.168;20.878;2023-02-12T10:57:14;102484.10;;;8.52;71.28
50682;BME280;36779;52.168;20.878;2023-02-12T10:59:47;102480.95;;;8.23;71.55
50682;BME280;36779;52.168;20.878;2023-02-12T11:02:26;102479.27;;;7.96;71.34
50682;BME280;36779;52.168;20.878;2023-02-12T11:04:57;102480.25;;;7.70;72.08
50682;BME280;36779;52.168;20.878;2023-02-12T11:07:46;102483.95;;;7.65;72.62
50682;BME280;36779;52.168;20.878;2023-02-12T11:10:24;102485.23;;;7.64;72.86
50682;BME280;36779;52.168;20.878;2023-02-12T11:12:55;102480.88;;;7.51;72.86
50682;BME280;36779;52.168;20.878;2023-02-12T11:15:27;102480.14;;;7.46;73.13
50682;BME280;36779;52.168;20.878;2023-02-12T11:18:00;102482.56;;;7.32;72.72
50682;BME280;36779;52.168;20.878;2023-02-12T11:20:37;102483.80;;;7.11;72.73
50682;BME280;36779;52.168;20.878;2023-02-12T11:23:24;102487.05;;;7.19;73.47
50682;BME280;36779;52.168;20.878;2023-02-12T11:25:59;102490.63;;;7.21;73.34
50682;BME280;36779;52.168;20.878;2023-02-12T11:28:29;102490.25;;;7.15;73.32
50682;BME280;36779;52.168;20.878;2023-02-12T11:31:01;102491.23;;;6.98;72.83
50682;BME280;36779;52.168;20.878;2023-02-12T11:33:32;102489.52;;;6.75;72.76
50682;BME280;36779;52.168;20.878;2023-02-12T11:36:11;102490.58;;;6.59;72.80
50682;BME280;36779;52.168;20.878;2023-02-12T11:38:50;102484.65;;;6.48;73.06
50682;BME280;36779;52.168;20.878;2023-02-12T11:41:25;102486.80;;;6.41;73.01
50682;BME280;36779;52.168;20.878;2023-02-12T11:43:56;102482.42;;;6.31;72.75
50682;BME280;36779;52.168;20.878;2023-02-12T11:46:26;102479.77;;;6.15;72.43
50682;BME280;36779;52.168;20.878;2023-02-12T11:48:56;102475.14;;;5.89;72.00
50682;BME280;36779;52.168;20.878;2023-02-12T11:51:29;102472.54;;;5.64;72.21
50682;BME280;36779;52.168;20.878;2023-02-12T11:54:01;102473.64;;;5.56;72.58
50682;BME280;36779;52.168;20.878;2023-02-12T11:56:45;102469.41;;;5.46;72.06
50682;BME280;36779;52.168;20.878;2023-02-12T11:59:30;102465.05;;;5.14;71.92
50682;BME280;36779;52.168;20.878;2023-02-12T12:02:03;102464.90;;;5.05;72.51
50682;BME280;36779;52.168;20.878;2023-02-12T12:04:38;102470.95;;;5.04;72.59
50682;BME280;36779;52.168;20.878;2023-02-12T12:07:19;102473.39;;;5.05;72.73
50682;BME280;36779;52.168;20.878;2023-02-12T12:09:56;102469.46;;;4.99;72.65
50682;BME280;36779;52.168;20.878;2023-02-12T12:12:35;102466.19;;;4.98;72.86
50682;BME280;36779;52.168;20.878;2023-02-12T12:15:14;102464.13;;;4.96;72.73
50682;BME280;36779;52.168;20.878;2023-02-12T12:18:10;102471.49;;;5.01;72.98
50682;BME280;36779;52.168;20.878;2023-02-12T12:21:10;102472.27;;;4.99;72.85
50682;BME280;36779;52.168;20.878;2023-02-12T12:23:45;102471.94;;;4.95;72.87
50682;BME280;36779;52.168;20.878;2023-02-12T12:26:22;102469.13;;;4.87;72.57
50682;BME280;36779;52.168;20.878;2023-02-12T12:28:58;102458.54;;;4.84;72.64
50682;BME280;36779;52.168;20.878;2023-02-12T12:31:32;102449.45;;;4.79;72.59
50682;BME280;36779;52.168;20.878;2023-02-12T12:34:07;102444.92;;;4.78;72.74
50682;BME280;36779;52.168;20.878;2023-02-12T12:37:02;102447.48;;;4.80;72.76
50682;BME280;36779;52.168;20.878;2023-02-12T12:39:42;102448.61;;;4.82;72.70
50682;BME280;36779;52.168;20.878;2023-02-12T12:45:33;102447.06;;;4.74;72.56
50682;BME280;36779;52.168;20.878;2023-02-12T12:48:19;102440.42;;;4.58;72.11
50682;BME280;36779;52.168;20.878;2023-02-12T12:51:03;102437.61;;;4.32;71.64
50682;BME280;36779;52.168;20.878;2023-02-12T12:53:45;102434.52;;;4.15;71.94
50682;BME280;36779;52.168;20.878;2023-02-12T12:59:39;102433.59;;;3.89;72.03
50682;BME280;36779;52.168;20.878;2023-02-12T13:05:58;102440.14;;;3.60;71.98
50682;BME280;36779;52.168;20.878;2023-02-12T13:08:41;102434.66;;;3.61;72.24
50682;BME280;36779;52.168;20.878;2023-02-12T13:11:24;102432.05;;;3.60;72.25
50682;BME280;36779;52.168;20.878;2023-02-12T13:14:03;102430.61;;;3.53;72.05
50682;BME280;36779;52.168;20.878;2023-02-12T13:16:40;102432.35;;;3.49;72.16
50682;BME280;36779;52.168;20.878;2023-02-12T13:19:17;102432.79;;;3.48;72.26
50682;BME280;36779;52.168;20.878;2023-02-12T13:21:56;102435.38;;;3.49;72.34
50682;BME280;36779;52.168;20.878;2023-02-12T13:24:34;102434.67;;;3.48;72.41
50682;BME280;36779;52.168;20.878;2023-02-12T13:27:09;102433.15;;;3.47;72.45
50682;BME280;36779;52.168;20.878;2023-02-12T13:29:45;102435.34;;;3.45;72.41
50682;BME280;36779;52.168;20.878;2023-02-12T13:32:22;102437.91;;;3.43;72.32